sensor_id;sensor_type;location;lat;lon;timestamp;P1;durP1;ratioP1;P2;durP2;ratioP2
69730;SDS011;56996;48.138;11.538;2024-03-02T00:00:21;11.00;;;5.40;;
69730;SDS011;56996;48.138;11.538;2024-03-02T00:02:49;11.00;;;5.50;;
69730;SDS011;56996;48.138;11.538;2024-03-02T00:05:20;10.60;;;5.40;;
69730;SDS011;56996;48.138;11.538;2024-03-02T00:07:54;10.40;;;5.20;;
69730;SDS011;56996;48.138;11.538;2024-03-02T00:10:26;11.00;;;5.20;;
69730;SDS011;56996;48.138;11.538;2024-03-02T00:12:58;9.60;;;4.70;;
69730;SDS011;56996;48.138;11.538;2024-03-02T00:15:47;11.10;;;5.50;;
69730;SDS011;56996;48.138;11.538;2024-03-02T00:18:30;11.40;;;5.70;;
69730;SDS011;56996;48.138;11.538;2024-03-02T00:20:59;11.10;;;5.40;;
69730;SDS011;56996;48.138;11.538;2024-03-02T00:23:29;11.50;;;6.10;;
69730;SDS011;56996;48.138;11.538;2024-03-02T00:25:57;12.70;;;5.90;;
69730;SDS011;56996;48.138;11.538;2024-03-02T00:28:29;12.20;;;6.20;;
69730;SDS011;56996;48.138;11.538;2024-03-02T00:31:09;12.30;;;6.10;;
69730;SDS011;56996;48.138;11.538;2024-03-02T00:33:44;13.10;;;6.40;;
69730;SDS011;56996;48.138;11.538;2024-03-02T00:36:15;10.80;;;5.20;;
69730;SDS011;56996;48.138;11.538;2024-03-02T00:38:47;10.90;;;5.40;;
69730;SDS011;56996;48.138;11.538;2024-03-02T00:41:24;12.00;;;5.80;;
69730;SDS011;56996;48.138;11.538;2024-03-02T00:44:04;11.30;;;5.80;;
69730;SDS011;56996;48.138;11.538;2024-03-02T00:46:34;10.50;;;5.40;;
69730;SDS011;56996;48.138;11.538;2024-03-02T00:49:04;10.70;;;5.90;;
69730;SDS011;56996;48.138;11.538;2024-03-02T00:51:33;11.00;;;5.90;;
69730;SDS011;56996;48.138;11.538;2024-03-02T00:54:05;11.10;;;5.50;;
69730;SDS011;56996;48.138;11.538;2024-03-02T00:56:33;11.50;;;5.80;;
69730;SDS011;56996;48.138;11.538;2024-03-02T00:59:01;12.50;;;6.30;;
69730;SDS011;56996;48.138;11.538;2024-03-02T01:01:28;11.60;;;5.90;;
69730;SDS011;56996;48.138;11.538;2024-03-02T01:03:55;11.20;;;5.90;;
69730;SDS011;56996;48.138;11.538;2024-03-02T01:06:23;12.60;;;6.20;;
69730;SDS011;56996;48.138;11.538;2024-03-02T01:08:50;11.70;;;6.00;;
69730;SDS011;56996;48.138;11.538;2024-03-02T01:11:19;11.60;;;6.30;;
69730;SDS011;56996;48.138;11.538;2024-03-02T01:13:50;10.80;;;5.70;;
69730;SDS011;56996;48.138;11.538;2024-03-02T01:16:18;11.00;;;6.10;;
69730;SDS011;56996;48.138;11.538;2024-03-02T01:18:45;13.00;;;6.10;;
69730;SDS011;56996;48.138;11.538;2024-03-02T01:21:11;11.10;;;5.40;;
69730;SDS011;56996;48.138;11.538;2024-03-02T01:23:38;11.80;;;6.00;;
69730;SDS011;56996;48.138;11.538;2024-03-02T01:26:06;11.10;;;5.60;;
69730;SDS011;56996;48.138;11.538;2024-03-02T01:28:33;11.50;;;6.20;;
69730;SDS011;56996;48.138;11.538;2024-03-02T01:31:00;10.90;;;5.50;;
69730;SDS011;56996;48.138;11.538;2024-03-02T01:33:28;12.60;;;6.20;;
69730;SDS011;56996;48.138;11.538;2024-03-02T01:35:55;11.00;;;5.60;;
69730;SDS011;56996;48.138;11.538;2024-03-02T01:38:21;10.50;;;5.40;;
69730;SDS011;56996;48.138;11.538;2024-03-02T01:40:48;10.90;;;5.90;;
69730;SDS011;56996;48.138;11.538;2024-03-02T01:43:15;11.10;;;5.50;;
69730;SDS011;56996;48.138;11.538;2024-03-02T01:45:42;12.60;;;6.00;;
69730;SDS011;56996;48.138;11.538;2024-03-02T01:48:09;11.50;;;5.80;;
69730;SDS011;56996;48.138;11.538;2024-03-02T01:50:35;11.30;;;5.70;;
69730;SDS011;56996;48.138;11.538;2024-03-02T01:53:02;11.00;;;4.90;;
69730;SDS011;56996;48.138;11.538;2024-03-02T01:55:29;11.30;;;5.40;;
69730;SDS011;56996;48.138;11.538;2024-03-02T01:57:57;10.30;;;5.10;;
69730;SDS011;56996;48.138;11.538;2024-03-02T02:00:25;11.70;;;5.60;;
69730;SDS011;56996;48.138;11.538;2024-03-02T02:02:54;11.10;;;5.70;;
69730;SDS011;56996;48.138;11.538;2024-03-02T02:05:21;11.10;;;5.70;;
69730;SDS011;56996;48.138;11.538;2024-03-02T02:07:49;10.60;;;4.80;;
69730;SDS011;56996;48.138;11.538;2024-03-02T02:10:16;10.60;;;5.40;;
69730;SDS011;56996;48.138;11.538;2024-03-02T02:12:43;10.50;;;5.30;;
69730;SDS011;56996;48.138;11.538;2024-03-02T02:15:29;10.40;;;5.10;;
69730;SDS011;56996;48.138;11.538;2024-03-02T02:17:58;10.00;;;4.80;;
69730;SDS011;56996;48.138;11.538;2024-03-02T02:20:26;9.20;;;4.90;;
69730;SDS011;56996;48.138;11.538;2024-03-02T02:23:10;11.00;;;5.30;;
69730;SDS011;56996;48.138;11.538;2024-03-02T02:25:39;10.00;;;5.10;;
69730;SDS011;56996;48.138;11.538;2024-03-02T02:28:05;9.80;;;4.70;;
69730;SDS011;56996;48.138;11.538;2024-03-02T02:30:32;10.90;;;5.10;;
69730;SDS011;56996;48.138;11.538;2024-03-02T02:32:59;10.30;;;5.00;;
69730;SDS011;56996;48.138;11.538;2024-03-02T02:35:26;9.30;;;4.70;;
69730;SDS011;56996;48.138;11.538;2024-03-02T02:37:54;10.50;;;5.10;;
69730;SDS011;56996;48.138;11.538;2024-03-02T02:40:22;11.80;;;5.40;;
69730;SDS011;56996;48.138;11.538;2024-03-02T02:42:49;11.20;;;5.30;;
69730;SDS011;56996;48.138;11.538;2024-03-02T02:45:19;10.80;;;5.00;;
69730;SDS011;56996;48.138;11.538;2024-03-02T02:47:45;12.40;;;5.80;;
69730;SDS011;56996;48.138;11.538;2024-03-02T02:50:12;12.50;;;5.50;;
69730;SDS011;56996;48.138;11.538;2024-03-02T02:52:40;12.80;;;5.80;;
69730;SDS011;56996;48.138;11.538;2024-03-02T02:55:09;13.20;;;6.30;;
69730;SDS011;56996;48.138;11.538;2024-03-02T02:57:39;11.80;;;6.20;;
69730;SDS011;56996;48.138;11.538;2024-03-02T03:00:10;11.70;;;6.30;;
69730;SDS011;56996;48.138;11.538;2024-03-02T03:02:44;12.20;;;6.10;;
69730;SDS011;56996;48.138;11.538;2024-03-02T03:05:14;11.40;;;6.10;;
69730;SDS011;56996;48.138;11.538;2024-03-02T03:07:42;12.10;;;6.00;;
69730;SDS011;56996;48.138;11.538;2024-03-02T03:10:10;12.70;;;5.90;;
69730;SDS011;56996;48.138;11.538;2024-03-02T03:12:37;12.60;;;6.30;;
69730;SDS011;56996;48.138;11.538;2024-03-02T03:15:04;13.40;;;6.60;;
69730;SDS011;56996;48.138;11.538;2024-03-02T03:17:33;12.40;;;6.10;;
69730;SDS011;56996;48.138;11.538;2024-03-02T03:20:00;12.10;;;6.30;;
69730;SDS011;56996;48.138;11.538;2024-03-02T03:22:28;13.20;;;6.30;;
69730;SDS011;56996;48.138;11.538;2024-03-02T03:24:54;11.90;;;6.50;;
69730;SDS011;56996;48.138;11.538;2024-03-02T03:27:21;12.50;;;6.10;;
69730;SDS011;56996;48.138;11.538;2024-03-02T03:29:48;12.30;;;6.50;;
69730;SDS011;56996;48.138;11.538;2024-03-02T03:32:14;13.00;;;6.60;;
69730;SDS011;56996;48.138;11.538;2024-03-02T03:34:41;12.60;;;6.60;;
69730;SDS011;56996;48.138;11.538;2024-03-02T03:37:08;13.30;;;7.10;;
69730;SDS011;56996;48.138;11.538;2024-03-02T03:39:36;13.70;;;6.70;;
69730;SDS011;56996;48.138;11.538;2024-03-02T03:42:03;12.50;;;6.70;;
69730;SDS011;56996;48.138;11.538;2024-03-02T03:44:30;14.50;;;7.00;;
69730;SDS011;56996;48.138;11.538;2024-03-02T03:46:57;14.70;;;6.40;;
69730;SDS011;56996;48.138;11.538;2024-03-02T03:49:24;12.40;;;6.70;;
69730;SDS011;56996;48.138;11.538;2024-03-02T03:51:51;12.80;;;6.50;;
69730;SDS011;56996;48.138;11.538;2024-03-02T03:54:18;12.90;;;6.50;;
69730;SDS011;56996;48.138;11.538;2024-03-02T03:56:44;13.10;;;6.40;;
69730;SDS011;56996;48.138;11.538;2024-03-02T03:59:11;12.30;;;6.70;;
69730;SDS011;56996;48.138;11.538;2024-03-02T04:01:38;12.60;;;6.60;;
69730;SDS011;56996;48.138;11.538;2024-03-02T04:04:04;11.20;;;6.10;;
69730;SDS011;56996;48.138;11.538;2024-03-02T04:06:32;13.40;;;6.60;;
69730;SDS011;56996;48.138;11.538;2024-03-02T04:08:59;11.90;;;6.70;;
69730;SDS011;56996;48.138;11.538;2024-03-02T04:11:25;13.60;;;6.70;;
69730;SDS011;56996;48.138;11.538;2024-03-02T04:13:52;14.90;;;6.40;;
69730;SDS011;56996;48.138;11.538;2024-03-02T04:16:22;13.50;;;7.10;;
69730;SDS011;56996;48.138;11.538;2024-03-02T04:18:49;13.70;;;7.00;;
69730;SDS011;56996;48.138;11.538;2024-03-02T04:21:15;13.30;;;6.90;;
69730;SDS011;56996;48.138;11.538;2024-03-02T04:23:42;14.10;;;7.20;;
69730;SDS011;56996;48.138;11.538;2024-03-02T04:26:09;13.40;;;7.20;;
69730;SDS011;56996;48.138;11.538;2024-03-02T04:28:36;13.40;;;7.30;;
69730;SDS011;56996;48.138;11.538;2024-03-02T04:31:03;14.30;;;7.20;;
69730;SDS011;56996;48.138;11.538;2024-03-02T04:33:30;14.10;;;6.90;;
69730;SDS011;56996;48.138;11.538;2024-03-02T04:35:56;13.00;;;6.40;;
69730;SDS011;56996;48.138;11.538;2024-03-02T04:38:24;12.40;;;6.60;;
69730;SDS011;56996;48.138;11.538;2024-03-02T04:40:50;13.40;;;6.30;;
69730;SDS011;56996;48.138;11.538;2024-03-02T04:43:17;13.00;;;6.80;;
69730;SDS011;56996;48.138;11.538;2024-03-02T04:45:45;13.30;;;6.70;;
69730;SDS011;56996;48.138;11.538;2024-03-02T04:48:12;12.40;;;6.70;;
69730;SDS011;56996;48.138;11.538;2024-03-02T04:50:40;14.10;;;7.00;;
69730;SDS011;56996;48.138;11.538;2024-03-02T04:53:07;13.40;;;6.90;;
69730;SDS011;56996;48.138;11.538;2024-03-02T04:55:34;12.80;;;6.60;;
69730;SDS011;56996;48.138;11.538;2024-03-02T04:58:01;13.30;;;6.70;;
69730;SDS011;56996;48.138;11.538;2024-03-02T05:00:28;13.70;;;7.10;;
69730;SDS011;56996;48.138;11.538;2024-03-02T05:02:54;13.60;;;6.80;;
69730;SDS011;56996;48.138;11.538;2024-03-02T05:05:21;12.70;;;6.60;;
69730;SDS011;56996;48.138;11.538;2024-03-02T05:07:48;12.50;;;6.60;;
69730;SDS011;56996;48.138;11.538;2024-03-02T05:10:15;12.00;;;6.50;;
69730;SDS011;56996;48.138;11.538;2024-03-02T05:12:42;12.30;;;6.50;;
69730;SDS011;56996;48.138;11.538;2024-03-02T05:15:18;12.70;;;6.60;;
69730;SDS011;56996;48.138;11.538;2024-03-02T05:17:44;13.80;;;7.30;;
69730;SDS011;56996;48.138;11.538;2024-03-02T05:20:12;13.50;;;6.60;;
69730;SDS011;56996;48.138;11.538;2024-03-02T05:22:39;13.50;;;6.90;;
69730;SDS011;56996;48.138;11.538;2024-03-02T05:25:07;13.90;;;6.80;;
69730;SDS011;56996;48.138;11.538;2024-03-02T05:27:36;13.30;;;6.70;;
69730;SDS011;56996;48.138;11.538;2024-03-02T05:30:03;12.80;;;6.40;;
69730;SDS011;56996;48.138;11.538;2024-03-02T05:32:36;12.10;;;6.20;;
69730;SDS011;56996;48.138;11.538;2024-03-02T05:35:03;12.70;;;6.60;;
69730;SDS011;56996;48.138;11.538;2024-03-02T05:37:31;14.90;;;5.60;;
69730;SDS011;56996;48.138;11.538;2024-03-02T05:39:58;14.00;;;6.80;;
69730;SDS011;56996;48.138;11.538;2024-03-02T05:42:26;14.20;;;7.20;;
69730;SDS011;56996;48.138;11.538;2024-03-02T05:44:53;12.30;;;6.80;;
69730;SDS011;56996;48.138;11.538;2024-03-02T05:47:20;25.20;;;13.20;;
69730;SDS011;56996;48.138;11.538;2024-03-02T05:49:47;14.20;;;7.70;;
69730;SDS011;56996;48.138;11.538;2024-03-02T05:52:14;13.80;;;7.50;;
69730;SDS011;56996;48.138;11.538;2024-03-02T05:54:40;14.00;;;7.30;;
69730;SDS011;56996;48.138;11.538;2024-03-02T05:57:07;15.50;;;7.70;;
69730;SDS011;56996;48.138;11.538;2024-03-02T05:59:47;14.30;;;7.50;;
69730;SDS011;56996;48.138;11.538;2024-03-02T06:02:14;13.40;;;7.10;;
69730;SDS011;56996;48.138;11.538;2024-03-02T06:04:41;17.40;;;9.00;;
69730;SDS011;56996;48.138;11.538;2024-03-02T06:07:07;16.50;;;7.90;;
69730;SDS011;56996;48.138;11.538;2024-03-02T06:09:34;15.90;;;8.30;;
69730;SDS011;56996;48.138;11.538;2024-03-02T06:12:01;14.10;;;7.70;;
69730;SDS011;56996;48.138;11.538;2024-03-02T06:14:27;14.20;;;7.50;;
69730;SDS011;56996;48.138;11.538;2024-03-02T06:16:54;15.70;;;8.00;;
69730;SDS011;56996;48.138;11.538;2024-03-02T06:19:21;14.80;;;8.10;;
69730;SDS011;56996;48.138;11.538;2024-03-02T06:21:48;15.70;;;7.60;;
69730;SDS011;56996;48.138;11.538;2024-03-02T06:24:14;14.10;;;7.60;;
69730;SDS011;56996;48.138;11.538;2024-03-02T06:26:41;14.80;;;7.60;;
69730;SDS011;56996;48.138;11.538;2024-03-02T06:29:08;16.00;;;7.70;;
69730;SDS011;56996;48.138;11.538;2024-03-02T06:31:34;13.80;;;7.40;;
69730;SDS011;56996;48.138;11.538;2024-03-02T06:34:01;14.70;;;7.80;;
69730;SDS011;56996;48.138;11.538;2024-03-02T06:36:30;15.10;;;8.10;;
69730;SDS011;56996;48.138;11.538;2024-03-02T06:38:56;14.90;;;7.90;;
69730;SDS011;56996;48.138;11.538;2024-03-02T06:41:23;14.50;;;7.60;;
69730;SDS011;56996;48.138;11.538;2024-03-02T06:43:50;16.60;;;8.00;;
69730;SDS011;56996;48.138;11.538;2024-03-02T06:46:20;19.20;;;11.60;;
69730;SDS011;56996;48.138;11.538;2024-03-02T06:48:47;16.00;;;7.90;;
69730;SDS011;56996;48.138;11.538;2024-03-02T06:51:14;16.00;;;8.20;;
69730;SDS011;56996;48.138;11.538;2024-03-02T06:53:42;16.20;;;8.40;;
69730;SDS011;56996;48.138;11.538;2024-03-02T06:56:08;16.30;;;7.70;;
69730;SDS011;56996;48.138;11.538;2024-03-02T06:58:35;15.20;;;7.70;;
69730;SDS011;56996;48.138;11.538;2024-03-02T07:01:02;15.80;;;8.00;;
69730;SDS011;56996;48.138;11.538;2024-03-02T07:03:29;15.00;;;7.60;;
69730;SDS011;56996;48.138;11.538;2024-03-02T07:05:56;16.60;;;9.10;;
69730;SDS011;56996;48.138;11.538;2024-03-02T07:08:23;19.80;;;10.20;;
69730;SDS011;56996;48.138;11.538;2024-03-02T07:10:50;15.80;;;8.70;;
69730;SDS011;56996;48.138;11.538;2024-03-02T07:13:17;15.50;;;8.60;;
69730;SDS011;56996;48.138;11.538;2024-03-02T07:15:43;16.60;;;9.10;;
69730;SDS011;56996;48.138;11.538;2024-03-02T07:18:33;17.30;;;9.30;;
69730;SDS011;56996;48.138;11.538;2024-03-02T07:21:00;17.00;;;9.20;;
69730;SDS011;56996;48.138;11.538;2024-03-02T07:23:27;17.60;;;9.20;;
69730;SDS011;56996;48.138;11.538;2024-03-02T07:25:54;16.50;;;9.20;;
69730;SDS011;56996;48.138;11.538;2024-03-02T07:28:26;16.10;;;9.00;;
69730;SDS011;56996;48.138;11.538;2024-03-02T07:31:00;18.50;;;9.50;;
69730;SDS011;56996;48.138;11.538;2024-03-02T07:33:27;16.10;;;9.60;;
69730;SDS011;56996;48.138;11.538;2024-03-02T07:35:54;18.70;;;9.90;;
69730;SDS011;56996;48.138;11.538;2024-03-02T07:38:22;17.40;;;9.50;;
69730;SDS011;56996;48.138;11.538;2024-03-02T07:40:49;18.30;;;9.80;;
69730;SDS011;56996;48.138;11.538;2024-03-02T07:43:20;18.40;;;10.10;;
69730;SDS011;56996;48.138;11.538;2024-03-02T07:45:47;18.70;;;9.80;;
69730;SDS011;56996;48.138;11.538;2024-03-02T07:48:15;19.70;;;10.20;;
69730;SDS011;56996;48.138;11.538;2024-03-02T07:50:41;18.20;;;9.80;;
69730;SDS011;56996;48.138;11.538;2024-03-02T07:53:09;19.40;;;9.50;;
69730;SDS011;56996;48.138;11.538;2024-03-02T07:55:36;17.40;;;9.10;;
69730;SDS011;56996;48.138;11.538;2024-03-02T07:58:03;17.80;;;9.30;;
69730;SDS011;56996;48.138;11.538;2024-03-02T08:00:30;24.30;;;13.20;;
69730;SDS011;56996;48.138;11.538;2024-03-02T08:02:57;18.10;;;8.70;;
69730;SDS011;56996;48.138;11.538;2024-03-02T08:05:24;16.50;;;8.20;;
69730;SDS011;56996;48.138;11.538;2024-03-02T08:07:51;17.40;;;8.80;;
69730;SDS011;56996;48.138;11.538;2024-03-02T08:10:19;16.10;;;8.00;;
69730;SDS011;56996;48.138;11.538;2024-03-02T08:12:46;16.80;;;8.50;;
69730;SDS011;56996;48.138;11.538;2024-03-02T08:15:13;15.60;;;7.60;;
69730;SDS011;56996;48.138;11.538;2024-03-02T08:17:40;16.30;;;8.20;;
69730;SDS011;56996;48.138;11.538;2024-03-02T08:20:15;13.10;;;6.30;;
69730;SDS011;56996;48.138;11.538;2024-03-02T08:22:42;14.20;;;6.80;;
69730;SDS011;56996;48.138;11.538;2024-03-02T08:25:09;15.30;;;6.80;;
69730;SDS011;56996;48.138;11.538;2024-03-02T08:27:36;14.10;;;6.60;;
69730;SDS011;56996;48.138;11.538;2024-03-02T08:30:05;13.10;;;6.70;;
69730;SDS011;56996;48.138;11.538;2024-03-02T08:32:33;13.70;;;6.80;;
69730;SDS011;56996;48.138;11.538;2024-03-02T08:35:01;14.20;;;6.70;;
69730;SDS011;56996;48.138;11.538;2024-03-02T08:37:28;13.00;;;6.20;;
69730;SDS011;56996;48.138;11.538;2024-03-02T08:39:54;10.80;;;4.90;;
69730;SDS011;56996;48.138;11.538;2024-03-02T08:42:22;10.50;;;5.20;;
69730;SDS011;56996;48.138;11.538;2024-03-02T08:44:49;11.70;;;5.20;;
69730;SDS011;56996;48.138;11.538;2024-03-02T08:47:16;12.10;;;5.70;;
69730;SDS011;56996;48.138;11.538;2024-03-02T08:49:43;13.00;;;5.90;;
69730;SDS011;56996;48.138;11.538;2024-03-02T08:52:09;13.10;;;5.70;;
69730;SDS011;56996;48.138;11.538;2024-03-02T08:54:36;13.50;;;5.50;;
69730;SDS011;56996;48.138;11.538;2024-03-02T08:57:05;12.80;;;5.70;;
69730;SDS011;56996;48.138;11.538;2024-03-02T08:59:32;11.30;;;5.50;;
69730;SDS011;56996;48.138;11.538;2024-03-02T09:01:59;12.50;;;5.90;;
69730;SDS011;56996;48.138;11.538;2024-03-02T09:04:26;12.40;;;5.60;;
69730;SDS011;56996;48.138;11.538;2024-03-02T09:06:57;12.00;;;5.60;;
69730;SDS011;56996;48.138;11.538;2024-03-02T09:09:24;10.40;;;5.10;;
69730;SDS011;56996;48.138;11.538;2024-03-02T09:11:51;11.70;;;5.10;;
69730;SDS011;56996;48.138;11.538;2024-03-02T09:14:18;12.30;;;6.10;;
69730;SDS011;56996;48.138;11.538;2024-03-02T09:16:45;11.20;;;5.90;;
69730;SDS011;56996;48.138;11.538;2024-03-02T09:19:12;11.40;;;5.80;;
69730;SDS011;56996;48.138;11.538;2024-03-02T09:21:39;11.90;;;6.70;;
69730;SDS011;56996;48.138;11.538;2024-03-02T09:24:06;13.30;;;7.30;;
69730;SDS011;56996;48.138;11.538;2024-03-02T09:26:33;13.80;;;8.10;;
69730;SDS011;56996;48.138;11.538;2024-03-02T09:29:00;12.30;;;7.90;;
69730;SDS011;56996;48.138;11.538;2024-03-02T09:31:26;14.20;;;8.60;;
69730;SDS011;56996;48.138;11.538;2024-03-02T09:33:53;14.50;;;8.70;;
69730;SDS011;56996;48.138;11.538;2024-03-02T09:36:21;13.60;;;7.80;;
69730;SDS011;56996;48.138;11.538;2024-03-02T09:38:49;12.40;;;7.60;;
69730;SDS011;56996;48.138;11.538;2024-03-02T09:41:16;12.10;;;7.10;;
69730;SDS011;56996;48.138;11.538;2024-03-02T09:43:43;11.10;;;6.50;;
69730;SDS011;56996;48.138;11.538;2024-03-02T09:46:10;11.50;;;6.90;;
69730;SDS011;56996;48.138;11.538;2024-03-02T09:48:37;11.30;;;6.60;;
69730;SDS011;56996;48.138;11.538;2024-03-02T09:51:05;12.70;;;6.30;;
69730;SDS011;56996;48.138;11.538;2024-03-02T09:53:33;11.90;;;6.50;;
69730;SDS011;56996;48.138;11.538;2024-03-02T09:56:00;11.60;;;6.70;;
69730;SDS011;56996;48.138;11.538;2024-03-02T09:58:28;10.80;;;6.20;;
69730;SDS011;56996;48.138;11.538;2024-03-02T10:00:55;12.90;;;7.00;;
69730;SDS011;56996;48.138;11.538;2024-03-02T10:03:24;10.90;;;5.90;;
69730;SDS011;56996;48.138;11.538;2024-03-02T10:05:51;10.50;;;5.80;;
69730;SDS011;56996;48.138;11.538;2024-03-02T10:08:18;20.00;;;15.20;;
69730;SDS011;56996;48.138;11.538;2024-03-02T10:10:45;9.80;;;5.40;;
69730;SDS011;56996;48.138;11.538;2024-03-02T10:13:13;10.70;;;6.00;;
69730;SDS011;56996;48.138;11.538;2024-03-02T10:15:40;10.10;;;5.40;;
69730;SDS011;56996;48.138;11.538;2024-03-02T10:18:12;8.90;;;4.90;;
69730;SDS011;56996;48.138;11.538;2024-03-02T10:20:40;9.80;;;5.20;;
69730;SDS011;56996;48.138;11.538;2024-03-02T10:23:15;9.80;;;4.80;;
69730;SDS011;56996;48.138;11.538;2024-03-02T10:25:44;9.40;;;5.20;;
69730;SDS011;56996;48.138;11.538;2024-03-02T10:28:23;11.10;;;5.10;;
69730;SDS011;56996;48.138;11.538;2024-03-02T10:30:51;10.90;;;5.30;;
69730;SDS011;56996;48.138;11.538;2024-03-02T10:33:19;9.90;;;5.10;;
69730;SDS011;56996;48.138;11.538;2024-03-02T10:35:48;10.80;;;5.10;;
69730;SDS011;56996;48.138;11.538;2024-03-02T10:38:17;11.80;;;6.30;;
69730;SDS011;56996;48.138;11.538;2024-03-02T10:40:47;10.20;;;4.90;;
69730;SDS011;56996;48.138;11.538;2024-03-02T10:43:15;9.30;;;4.90;;
69730;SDS011;56996;48.138;11.538;2024-03-02T10:45:43;10.50;;;5.20;;
69730;SDS011;56996;48.138;11.538;2024-03-02T10:48:11;32.40;;;21.90;;
69730;SDS011;56996;48.138;11.538;2024-03-02T10:50:37;10.10;;;5.40;;
69730;SDS011;56996;48.138;11.538;2024-03-02T10:53:04;12.00;;;5.90;;
69730;SDS011;56996;48.138;11.538;2024-03-02T10:55:32;9.70;;;5.00;;
69730;SDS011;56996;48.138;11.538;2024-03-02T10:58:00;9.70;;;4.40;;
69730;SDS011;56996;48.138;11.538;2024-03-02T11:00:33;9.10;;;3.80;;
69730;SDS011;56996;48.138;11.538;2024-03-02T11:03:05;9.20;;;4.30;;
69730;SDS011;56996;48.138;11.538;2024-03-02T11:05:39;7.90;;;4.00;;
69730;SDS011;56996;48.138;11.538;2024-03-02T11:08:10;9.80;;;4.70;;
69730;SDS011;56996;48.138;11.538;2024-03-02T11:10:51;10.70;;;5.70;;
69730;SDS011;56996;48.138;11.538;2024-03-02T11:13:24;11.20;;;5.30;;
69730;SDS011;56996;48.138;11.538;2024-03-02T11:15:55;13.60;;;6.30;;
69730;SDS011;56996;48.138;11.538;2024-03-02T11:18:26;12.50;;;6.30;;
69730;SDS011;56996;48.138;11.538;2024-03-02T11:20:53;11.70;;;6.40;;
69730;SDS011;56996;48.138;11.538;2024-03-02T11:23:32;12.50;;;6.50;;
69730;SDS011;56996;48.138;11.538;2024-03-02T11:26:22;13.60;;;6.70;;
69730;SDS011;56996;48.138;11.538;2024-03-02T11:28:52;13.30;;;6.30;;
69730;SDS011;56996;48.138;11.538;2024-03-02T11:31:18;11.60;;;6.30;;
69730;SDS011;56996;48.138;11.538;2024-03-02T11:33:45;18.10;;;9.90;;
69730;SDS011;56996;48.138;11.538;2024-03-02T11:36:12;14.10;;;7.00;;
69730;SDS011;56996;48.138;11.538;2024-03-02T11:38:43;14.90;;;7.60;;
69730;SDS011;56996;48.138;11.538;2024-03-02T11:41:12;15.90;;;8.00;;
69730;SDS011;56996;48.138;11.538;2024-03-02T11:43:41;15.00;;;7.30;;
69730;SDS011;56996;48.138;11.538;2024-03-02T11:46:10;16.00;;;7.60;;
69730;SDS011;56996;48.138;11.538;2024-03-02T11:48:39;16.80;;;8.10;;
69730;SDS011;56996;48.138;11.538;2024-03-02T11:51:06;16.10;;;7.70;;
69730;SDS011;56996;48.138;11.538;2024-03-02T11:53:33;14.10;;;7.30;;
69730;SDS011;56996;48.138;11.538;2024-03-02T11:56:02;14.90;;;7.40;;
69730;SDS011;56996;48.138;11.538;2024-03-02T11:58:29;17.50;;;8.00;;
69730;SDS011;56996;48.138;11.538;2024-03-02T12:00:56;14.90;;;7.40;;
69730;SDS011;56996;48.138;11.538;2024-03-02T12:03:25;15.30;;;7.10;;
69730;SDS011;56996;48.138;11.538;2024-03-02T12:05:53;14.30;;;6.70;;
69730;SDS011;56996;48.138;11.538;2024-03-02T12:08:21;15.20;;;6.60;;
69730;SDS011;56996;48.138;11.538;2024-03-02T12:11:01;15.80;;;7.30;;
69730;SDS011;56996;48.138;11.538;2024-03-02T12:13:30;13.80;;;6.60;;
69730;SDS011;56996;48.138;11.538;2024-03-02T12:15:57;16.20;;;7.70;;
69730;SDS011;56996;48.138;11.538;2024-03-02T12:18:24;15.30;;;7.50;;
69730;SDS011;56996;48.138;11.538;2024-03-02T12:20:52;14.00;;;6.90;;
69730;SDS011;56996;48.138;11.538;2024-03-02T12:23:19;15.40;;;7.30;;
69730;SDS011;56996;48.138;11.538;2024-03-02T12:25:46;13.70;;;6.70;;
69730;SDS011;56996;48.138;11.538;2024-03-02T12:28:13;16.20;;;7.60;;
69730;SDS011;56996;48.138;11.538;2024-03-02T12:30:40;15.60;;;7.70;;
69730;SDS011;56996;48.138;11.538;2024-03-02T12:33:07;15.00;;;6.80;;
69730;SDS011;56996;48.138;11.538;2024-03-02T12:35:36;13.40;;;6.50;;
69730;SDS011;56996;48.138;11.538;2024-03-02T12:38:02;13.50;;;6.90;;
69730;SDS011;56996;48.138;11.538;2024-03-02T12:40:30;16.80;;;8.10;;
69730;SDS011;56996;48.138;11.538;2024-03-02T12:42:57;15.90;;;8.60;;
69730;SDS011;56996;48.138;11.538;2024-03-02T12:45:24;17.10;;;9.30;;
69730;SDS011;56996;48.138;11.538;2024-03-02T12:47:52;18.90;;;9.00;;
69730;SDS011;56996;48.138;11.538;2024-03-02T12:50:20;22.00;;;9.70;;
69730;SDS011;56996;48.138;11.538;2024-03-02T12:52:51;18.50;;;9.90;;
69730;SDS011;56996;48.138;11.538;2024-03-02T12:55:20;17.40;;;9.40;;
69730;SDS011;56996;48.138;11.538;2024-03-02T12:57:50;17.50;;;8.90;;
69730;SDS011;56996;48.138;11.538;2024-03-02T13:00:19;16.90;;;9.00;;
69730;SDS011;56996;48.138;11.538;2024-03-02T13:02:47;18.70;;;9.40;;
69730;SDS011;56996;48.138;11.538;2024-03-02T13:05:15;17.00;;;9.00;;
69730;SDS011;56996;48.138;11.538;2024-03-02T13:07:42;17.40;;;9.60;;
69730;SDS011;56996;48.138;11.538;2024-03-02T13:10:09;17.50;;;9.40;;
69730;SDS011;56996;48.138;11.538;2024-03-02T13:12:36;17.70;;;9.60;;
69730;SDS011;56996;48.138;11.538;2024-03-02T13:15:04;17.20;;;8.60;;
69730;SDS011;56996;48.138;11.538;2024-03-02T13:17:34;18.00;;;9.50;;
69730;SDS011;56996;48.138;11.538;2024-03-02T13:20:04;17.00;;;9.40;;
69730;SDS011;56996;48.138;11.538;2024-03-02T13:22:36;16.40;;;8.60;;
69730;SDS011;56996;48.138;11.538;2024-03-02T13:25:03;18.40;;;9.10;;
69730;SDS011;56996;48.138;11.538;2024-03-02T13:27:31;16.60;;;8.90;;
69730;SDS011;56996;48.138;11.538;2024-03-02T13:29:59;18.40;;;9.10;;
69730;SDS011;56996;48.138;11.538;2024-03-02T13:32:26;16.70;;;9.00;;
69730;SDS011;56996;48.138;11.538;2024-03-02T13:34:53;16.50;;;8.60;;
69730;SDS011;56996;48.138;11.538;2024-03-02T13:37:20;20.00;;;10.20;;
69730;SDS011;56996;48.138;11.538;2024-03-02T13:39:48;18.10;;;10.20;;
69730;SDS011;56996;48.138;11.538;2024-03-02T13:42:15;18.90;;;9.70;;
69730;SDS011;56996;48.138;11.538;2024-03-02T13:44:43;16.90;;;9.50;;
69730;SDS011;56996;48.138;11.538;2024-03-02T13:47:12;17.00;;;9.40;;
69730;SDS011;56996;48.138;11.538;2024-03-02T13:49:38;15.40;;;8.20;;
69730;SDS011;56996;48.138;11.538;2024-03-02T13:52:09;16.40;;;8.80;;
69730;SDS011;56996;48.138;11.538;2024-03-02T13:54:38;18.60;;;9.70;;
69730;SDS011;56996;48.138;11.538;2024-03-02T13:57:07;17.80;;;8.60;;
69730;SDS011;56996;48.138;11.538;2024-03-02T13:59:35;16.50;;;8.70;;
69730;SDS011;56996;48.138;11.538;2024-03-02T14:02:03;17.10;;;8.20;;
69730;SDS011;56996;48.138;11.538;2024-03-02T14:04:34;19.90;;;9.70;;
69730;SDS011;56996;48.138;11.538;2024-03-02T14:07:02;18.90;;;9.30;;
69730;SDS011;56996;48.138;11.538;2024-03-02T14:09:29;18.80;;;9.70;;
69730;SDS011;56996;48.138;11.538;2024-03-02T14:11:56;17.90;;;9.30;;
69730;SDS011;56996;48.138;11.538;2024-03-02T14:14:23;19.80;;;9.80;;
69730;SDS011;56996;48.138;11.538;2024-03-02T14:16:51;16.90;;;8.50;;
69730;SDS011;56996;48.138;11.538;2024-03-02T14:19:19;16.80;;;8.20;;
69730;SDS011;56996;48.138;11.538;2024-03-02T14:21:47;15.80;;;8.20;;
69730;SDS011;56996;48.138;11.538;2024-03-02T14:24:14;16.60;;;8.40;;
69730;SDS011;56996;48.138;11.538;2024-03-02T14:26:41;15.60;;;7.50;;